sensor_id;sensor_type;location;lat;lon;timestamp;pressure;altitude;pressure_sealevel;temperature;humidity
71996;BME280;59862;47.732;7.346;2023-04-04T00:00:55;98618.94;;;0.93;66.73
71996;BME280;59862;47.732;7.346;2023-04-04T00:03:22;98622.52;;;0.92;66.86
71996;BME280;59862;47.732;7.346;2023-04-04T00:05:49;98614.21;;;0.91;67.05
71996;BME280;59862;47.732;7.346;2023-04-04T00:08:17;98612.86;;;0.86;66.76
71996;BME280;59862;47.732;7.346;2023-04-04T00:10:44;98615.47;;;0.80;66.91
71996;BME280;59862;47.732;7.346;2023-04-04T00:13:12;98611.83;;;0.75;67.26
71996;BME280;59862;47.732;7.346;2023-04-04T00:15:39;98612.77;;;0.74;67.46
71996;BME280;59862;47.732;7.346;2023-04-04T00:18:06;98608.27;;;0.69;67.19
71996;BME280;59862;47.732;7.346;2023-04-04T00:20:34;98606.34;;;0.66;67.51
71996;BME280;59862;47.732;7.346;2023-04-04T00:23:01;98606.45;;;0.64;67.55
71996;BME280;59862;47.732;7.346;2023-04-04T00:25:29;98613.91;;;0.65;67.90
71996;BME280;59862;47.732;7.346;2023-04-04T00:27:56;98613.37;;;0.60;68.03
71996;BME280;59862;47.732;7.346;2023-04-04T00:30:25;98609.45;;;0.53;68.64
71996;BME280;59862;47.732;7.346;2023-04-04T00:32:53;98607.79;;;0.52;68.55
71996;BME280;59862;47.732;7.346;2023-04-04T00:35:21;98607.98;;;0.49;68.56
71996;BME280;59862;47.732;7.346;2023-04-04T00:37:49;98612.96;;;0.41;68.97
71996;BME280;59862;47.732;7.346;2023-04-04T00:40:16;98612.45;;;0.41;69.01
71996;BME280;59862;47.732;7.346;2023-04-04T00:42:44;98610.25;;;0.35;68.98
71996;BME280;59862;47.732;7.346;2023-04-04T00:45:11;98612.42;;;0.36;69.37
71996;BME280;59862;47.732;7.346;2023-04-04T00:47:39;98609.16;;;0.32;69.53
71996;BME280;59862;47.732;7.346;2023-04-04T00:50:08;98613.78;;;0.29;69.40
71996;BME280;59862;47.732;7.346;2023-04-04T00:52:36;98607.30;;;0.27;69.50
71996;BME280;59862;47.732;7.346;2023-04-04T00:55:04;98604.97;;;0.23;69.57
71996;BME280;59862;47.732;7.346;2023-04-04T00:57:32;98602.17;;;0.19;69.71
71996;BME280;59862;47.732;7.346;2023-04-04T01:00:02;98603.34;;;0.15;69.87
71996;BME280;59862;47.732;7.346;2023-04-04T01:02:31;98596.78;;;0.08;70.21
71996;BME280;59862;47.732;7.346;2023-04-04T01:04:59;98594.33;;;0.05;70.19
71996;BME280;59862;47.732;7.346;2023-04-04T01:07:28;98598.05;;;0.02;70.25
71996;BME280;59862;47.732;7.346;2023-04-04T01:09:56;98594.98;;;-0.05;70.49
71996;BME280;59862;47.732;7.346;2023-04-04T01:12:24;98594.48;;;-0.04;70.62
71996;BME280;59862;47.732;7.346;2023-04-04T01:14:52;98593.97;;;-0.09;70.77
71996;BME280;59862;47.732;7.346;2023-04-04T01:17:20;98594.05;;;-0.11;70.86
71996;BME280;59862;47.732;7.346;2023-04-04T01:20:05;98590.67;;;-0.13;70.81
71996;BME280;59862;47.732;7.346;2023-04-04T01:22:34;98594.62;;;-0.13;70.89
71996;BME280;59862;47.732;7.346;2023-04-04T01:25:04;98587.55;;;-0.25;71.17
71996;BME280;59862;47.732;7.346;2023-04-04T01:27:32;98589.72;;;-0.24;71.22
71996;BME280;59862;47.732;7.346;2023-04-04T01:29:59;98585.11;;;-0.28;71.19
71996;BME280;59862;47.732;7.346;2023-04-04T01:32:50;98584.31;;;-0.35;71.65
71996;BME280;59862;47.732;7.346;2023-04-04T01:35:20;98585.77;;;-0.44;71.95
71996;BME280;59862;47.732;7.346;2023-04-04T01:38:10;98580.98;;;-0.51;72.22
71996;BME280;59862;47.732;7.346;2023-04-04T01:40:37;98577.88;;;-0.51;72.43
71996;BME280;59862;47.732;7.346;2023-04-04T01:43:07;98579.22;;;-0.58;72.46
71996;BME280;59862;47.732;7.346;2023-04-04T01:45:35;98576.42;;;-0.62;72.85
71996;BME280;59862;47.732;7.346;2023-04-04T01:48:03;98578.89;;;-0.66;72.87
71996;BME280;59862;47.732;7.346;2023-04-04T01:50:30;98587.64;;;-0.65;73.01
71996;BME280;59862;47.732;7.346;2023-04-04T01:52:57;98578.31;;;-0.64;73.12
71996;BME280;59862;47.732;7.346;2023-04-04T01:55:25;98575.51;;;-0.68;72.75
71996;BME280;59862;47.732;7.346;2023-04-04T01:57:53;98581.63;;;-0.67;72.85
71996;BME280;59862;47.732;7.346;2023-04-04T02:00:20;98582.67;;;-0.70;72.71
71996;BME280;59862;47.732;7.346;2023-04-04T02:02:48;98579.65;;;-0.71;72.98
71996;BME280;59862;47.732;7.346;2023-04-04T02:05:16;98578.72;;;-0.70;72.76
71996;BME280;59862;47.732;7.346;2023-04-04T02:07:47;98577.59;;;-0.73;72.89
71996;BME280;59862;47.732;7.346;2023-04-04T02:10:16;98571.96;;;-0.74;72.86
71996;BME280;59862;47.732;7.346;2023-04-04T02:12:43;98579.94;;;-0.76;72.74
71996;BME280;59862;47.732;7.346;2023-04-04T02:15:12;98577.53;;;-0.79;73.03
71996;BME280;59862;47.732;7.346;2023-04-04T02:17:40;98571.98;;;-0.81;73.07
71996;BME280;59862;47.732;7.346;2023-04-04T02:20:09;98578.92;;;-0.80;73.15
71996;BME280;59862;47.732;7.346;2023-04-04T02:22:37;98577.54;;;-0.86;72.91
71996;BME280;59862;47.732;7.346;2023-04-04T02:25:04;98572.38;;;-0.87;72.93
71996;BME280;59862;47.732;7.346;2023-04-04T02:27:32;98573.77;;;-0.89;73.18
71996;BME280;59862;47.732;7.346;2023-04-04T02:29:59;98576.34;;;-0.94;73.45
71996;BME280;59862;47.732;7.346;2023-04-04T02:32:27;98572.56;;;-0.90;73.62
71996;BME280;59862;47.732;7.346;2023-04-04T02:34:54;98576.00;;;-1.02;73.59
71996;BME280;59862;47.732;7.346;2023-04-04T02:37:22;98573.94;;;-1.04;73.86
71996;BME280;59862;47.732;7.346;2023-04-04T02:39:49;98571.20;;;-1.10;73.81
71996;BME280;59862;47.732;7.346;2023-04-04T02:42:17;98563.20;;;-1.08;73.92
71996;BME280;59862;47.732;7.346;2023-04-04T02:44:44;98563.70;;;-1.16;74.36
71996;BME280;59862;47.732;7.346;2023-04-04T02:47:11;98566.80;;;-1.16;74.48
71996;BME280;59862;47.732;7.346;2023-04-04T02:49:39;98560.39;;;-1.12;74.48
71996;BME280;59862;47.732;7.346;2023-04-04T02:52:06;98563.52;;;-1.20;74.49
71996;BME280;59862;47.732;7.346;2023-04-04T02:54:34;98567.76;;;-1.24;74.60
71996;BME280;59862;47.732;7.346;2023-04-04T02:57:01;98564.16;;;-1.23;74.80
71996;BME280;59862;47.732;7.346;2023-04-04T02:59:29;98567.48;;;-1.27;74.68
71996;BME280;59862;47.732;7.346;2023-04-04T03:01:57;98562.89;;;-1.30;74.70
71996;BME280;59862;47.732;7.346;2023-04-04T03:04:24;98564.02;;;-1.34;74.68
71996;BME280;59862;47.732;7.346;2023-04-04T03:06:52;98565.05;;;-1.37;74.78
71996;BME280;59862;47.732;7.346;2023-04-04T03:09:19;98567.19;;;-1.36;75.06
71996;BME280;59862;47.732;7.346;2023-04-04T03:11:48;98563.64;;;-1.35;75.11
71996;BME280;59862;47.732;7.346;2023-04-04T03:14:17;98562.32;;;-1.35;74.97
71996;BME280;59862;47.732;7.346;2023-04-04T03:16:44;98516.02;;;-1.66;74.92
71996;BME280;59862;47.732;7.346;2023-04-04T03:19:12;98567.48;;;-1.34;75.05
71996;BME280;59862;47.732;7.346;2023-04-04T03:21:39;98566.94;;;-1.39;75.03
71996;BME280;59862;47.732;7.346;2023-04-04T03:24:07;98563.56;;;-1.41;75.07
71996;BME280;59862;47.732;7.346;2023-04-04T03:26:34;98568.16;;;-1.44;75.39
71996;BME280;59862;47.732;7.346;2023-04-04T03:29:02;98564.48;;;-1.49;75.55
71996;BME280;59862;47.732;7.346;2023-04-04T03:31:30;98568.93;;;-1.49;75.66
71996;BME280;59862;47.732;7.346;2023-04-04T03:33:58;98571.56;;;-1.49;75.67
71996;BME280;59862;47.732;7.346;2023-04-04T03:36:26;98569.11;;;-1.52;75.72
71996;BME280;59862;47.732;7.346;2023-04-04T03:38:53;98571.27;;;-1.52;75.79
71996;BME280;59862;47.732;7.346;2023-04-04T03:41:21;98569.11;;;-1.52;75.88
71996;BME280;59862;47.732;7.346;2023-04-04T03:43:48;98568.15;;;-1.52;75.93
71996;BME280;59862;47.732;7.346;2023-04-04T03:46:16;98571.09;;;-1.56;76.04
71996;BME280;59862;47.732;7.346;2023-04-04T03:48:43;98564.59;;;-1.58;76.07
71996;BME280;59862;47.732;7.346;2023-04-04T03:51:10;98561.95;;;-1.58;76.14
71996;BME280;59862;47.732;7.346;2023-04-04T03:53:38;98562.34;;;-1.57;76.00
71996;BME280;59862;47.732;7.346;2023-04-04T03:56:06;98562.06;;;-1.59;75.94
71996;BME280;59862;47.732;7.346;2023-04-04T03:58:35;98561.59;;;-1.66;75.90
71996;BME280;59862;47.732;7.346;2023-04-04T04:01:03;98563.86;;;-1.74;76.07
71996;BME280;59862;47.732;7.346;2023-04-04T04:03:30;98565.46;;;-1.71;76.49
71996;BME280;59862;47.732;7.346;2023-04-04T04:05:58;98567.59;;;-1.71;76.39
71996;BME280;59862;47.732;7.346;2023-04-04T04:08:26;98563.29;;;-1.72;76.40
71996;BME280;59862;47.732;7.346;2023-04-04T04:10:54;98568.27;;;-1.74;76.36
71996;BME280;59862;47.732;7.346;2023-04-04T04:13:21;98567.52;;;-1.76;76.50
71996;BME280;59862;47.732;7.346;2023-04-04T04:15:49;98570.79;;;-1.73;76.49
71996;BME280;59862;47.732;7.346;2023-04-04T04:18:16;98570.79;;;-1.73;76.59
71996;BME280;59862;47.732;7.346;2023-04-04T04:20:44;98571.75;;;-1.74;76.75
71996;BME280;59862;47.732;7.346;2023-04-04T04:23:11;98574.19;;;-1.78;76.57
71996;BME280;59862;47.732;7.346;2023-04-04T04:25:38;98575.85;;;-1.84;76.64
71996;BME280;59862;47.732;7.346;2023-04-04T04:28:06;98579.23;;;-1.82;76.84
71996;BME280;59862;47.732;7.346;2023-04-04T04:30:33;98580.38;;;-1.79;76.81
71996;BME280;59862;47.732;7.346;2023-04-04T04:33:01;98575.51;;;-1.78;76.67
71996;BME280;59862;47.732;7.346;2023-04-04T04:35:29;98581.05;;;-1.82;76.47
71996;BME280;59862;47.732;7.346;2023-04-04T04:37:56;98576.60;;;-1.82;76.61
71996;BME280;59862;47.732;7.346;2023-04-04T04:40:23;98580.75;;;-1.85;76.28
71996;BME280;59862;47.732;7.346;2023-04-04T04:42:51;98581.11;;;-1.84;76.15
71996;BME280;59862;47.732;7.346;2023-04-04T04:45:18;98585.72;;;-1.87;76.44
71996;BME280;59862;47.732;7.346;2023-04-04T04:47:46;98587.79;;;-1.85;76.55
71996;BME280;59862;47.732;7.346;2023-04-04T04:50:13;98593.97;;;-1.86;76.40
71996;BME280;59862;47.732;7.346;2023-04-04T04:52:41;98593.22;;;-1.88;76.32
71996;BME280;59862;47.732;7.346;2023-04-04T04:55:09;98590.23;;;-1.89;76.29
71996;BME280;59862;47.732;7.346;2023-04-04T04:57:40;98597.47;;;-1.93;76.18
71996;BME280;59862;47.732;7.346;2023-04-04T05:00:08;98601.78;;;-1.92;76.16
71996;BME280;59862;47.732;7.346;2023-04-04T05:02:35;98595.20;;;-1.92;76.37
71996;BME280;59862;47.732;7.346;2023-04-04T05:05:03;98596.62;;;-1.93;76.42
71996;BME280;59862;47.732;7.346;2023-04-04T05:07:31;98597.08;;;-1.94;76.37
71996;BME280;59862;47.732;7.346;2023-04-04T05:13:32;98600.56;;;-1.93;76.32
71996;BME280;59862;47.732;7.346;2023-04-04T05:16:00;98607.97;;;-2.00;76.51
71996;BME280;59862;47.732;7.346;2023-04-04T05:18:27;98606.66;;;-2.00;76.48
71996;BME280;59862;47.732;7.346;2023-04-04T05:20:55;98611.71;;;-1.97;76.41
71996;BME280;59862;47.732;7.346;2023-04-04T05:23:23;98609.08;;;-1.97;76.57
71996;BME280;59862;47.732;7.346;2023-04-04T05:25:51;98605.53;;;-1.96;76.40
71996;BME280;59862;47.732;7.346;2023-04-04T05:28:19;98612.56;;;-1.96;76.25
71996;BME280;59862;47.732;7.346;2023-04-04T05:30:48;98611.64;;;-1.95;76.28
71996;BME280;59862;47.732;7.346;2023-04-04T05:33:15;98619.82;;;-1.93;76.38
71996;BME280;59862;47.732;7.346;2023-04-04T05:35:42;98623.83;;;-1.94;76.35
71996;BME280;59862;47.732;7.346;2023-04-04T05:38:11;98622.64;;;-1.89;76.38
71996;BME280;59862;47.732;7.346;2023-04-04T05:40:38;98637.00;;;-1.87;76.20
71996;BME280;59862;47.732;7.346;2023-04-04T05:43:06;98632.39;;;-1.84;76.21
71996;BME280;59862;47.732;7.346;2023-04-04T05:45:34;98632.41;;;-1.77;75.89
71996;BME280;59862;47.732;7.346;2023-04-04T05:48:02;98634.88;;;-1.74;75.66
71996;BME280;59862;47.732;7.346;2023-04-04T05:50:29;98634.03;;;-1.67;75.35
71996;BME280;59862;47.732;7.346;2023-04-04T05:52:57;98641.73;;;-1.64;75.18
71996;BME280;59862;47.732;7.346;2023-04-04T05:55:25;98645.23;;;-1.57;75.13
71996;BME280;59862;47.732;7.346;2023-04-04T05:57:53;98640.72;;;-1.55;74.82
71996;BME280;59862;47.732;7.346;2023-04-04T06:00:22;98640.25;;;-1.54;74.46
71996;BME280;59862;47.732;7.346;2023-04-04T06:02:49;98646.63;;;-1.51;74.32
71996;BME280;59862;47.732;7.346;2023-04-04T06:05:18;98651.03;;;-1.52;74.13
71996;BME280;59862;47.732;7.346;2023-04-04T06:07:46;98650.58;;;-1.44;74.08
71996;BME280;59862;47.732;7.346;2023-04-04T06:10:13;98646.82;;;-1.40;73.73
71996;BME280;59862;47.732;7.346;2023-04-04T06:12:40;98648.25;;;-1.34;73.49
71996;BME280;59862;47.732;7.346;2023-04-04T06:15:08;98653.31;;;-1.24;73.72
71996;BME280;59862;47.732;7.346;2023-04-04T06:17:35;98650.41;;;-1.13;72.92
71996;BME280;59862;47.732;7.346;2023-04-04T06:20:04;98648.59;;;-1.05;73.04
71996;BME280;59862;47.732;7.346;2023-04-04T06:22:32;98655.17;;;-0.98;72.77
71996;BME280;59862;47.732;7.346;2023-04-04T06:25:00;98651.02;;;-0.88;72.38
71996;BME280;59862;47.732;7.346;2023-04-04T06:27:27;98656.28;;;-0.88;71.85
71996;BME280;59862;47.732;7.346;2023-04-04T06:29:55;98651.76;;;-0.86;71.46
71996;BME280;59862;47.732;7.346;2023-04-04T06:32:22;98649.70;;;-0.95;71.36
71996;BME280;59862;47.732;7.346;2023-04-04T06:34:50;98647.73;;;-0.99;71.58
71996;BME280;59862;47.732;7.346;2023-04-04T06:37:18;98655.42;;;-0.89;71.83
71996;BME280;59862;47.732;7.346;2023-04-04T06:39:46;98653.47;;;-0.85;71.58
71996;BME280;59862;47.732;7.346;2023-04-04T06:42:14;98655.03;;;-0.76;70.99
71996;BME280;59862;47.732;7.346;2023-04-04T06:44:41;98657.94;;;-0.73;70.90
71996;BME280;59862;47.732;7.346;2023-04-04T06:47:08;98655.07;;;-0.56;70.75
71996;BME280;59862;47.732;7.346;2023-04-04T06:49:36;98649.21;;;-0.47;70.21
71996;BME280;59862;47.732;7.346;2023-04-04T06:52:04;98641.59;;;-0.44;69.49
71996;BME280;59862;47.732;7.346;2023-04-04T06:54:31;98645.48;;;-0.50;69.74
71996;BME280;59862;47.732;7.346;2023-04-04T06:56:59;98646.78;;;-0.30;70.07
71996;BME280;59862;47.732;7.346;2023-04-04T06:59:26;98642.52;;;-0.19;69.14
71996;BME280;59862;47.732;7.346;2023-04-04T07:01:55;98640.70;;;-0.11;69.02
71996;BME280;59862;47.732;7.346;2023-04-04T07:04:23;98638.30;;;-0.09;68.22
71996;BME280;59862;47.732;7.346;2023-04-04T07:06:51;98634.13;;;0.02;69.00
71996;BME280;59862;47.732;7.346;2023-04-04T07:09:18;98635.41;;;0.09;69.15
71996;BME280;59862;47.732;7.346;2023-04-04T07:11:46;98633.53;;;0.23;69.02
71996;BME280;59862;47.732;7.346;2023-04-04T07:14:13;98633.38;;;0.32;68.26
71996;BME280;59862;47.732;7.346;2023-04-04T07:16:41;98631.55;;;0.52;68.09
71996;BME280;59862;47.732;7.346;2023-04-04T07:19:08;98628.09;;;0.57;67.18
71996;BME280;59862;47.732;7.346;2023-04-04T07:21:36;98628.83;;;0.59;67.15
71996;BME280;59862;47.732;7.346;2023-04-04T07:24:04;98628.78;;;0.66;67.16
71996;BME280;59862;47.732;7.346;2023-04-04T07:26:31;98634.16;;;0.77;66.84
71996;BME280;59862;47.732;7.346;2023-04-04T07:29:00;98627.06;;;0.90;66.17
71996;BME280;59862;47.732;7.346;2023-04-04T07:31:27;98635.52;;;0.95;65.48
71996;BME280;59862;47.732;7.346;2023-04-04T07:33:55;98628.70;;;1.16;65.30
71996;BME280;59862;47.732;7.346;2023-04-04T07:36:22;98627.08;;;1.26;64.42
71996;BME280;59862;47.732;7.346;2023-04-04T07:38:50;98628.41;;;1.44;64.06
71996;BME280;59862;47.732;7.346;2023-04-04T07:41:17;98627.73;;;1.53;64.03
71996;BME280;59862;47.732;7.346;2023-04-04T07:43:47;98626.36;;;1.66;63.79
71996;BME280;59862;47.732;7.346;2023-04-04T07:46:15;98627.09;;;1.74;62.97
71996;BME280;59862;47.732;7.346;2023-04-04T07:48:43;98628.95;;;1.61;62.78
71996;BME280;59862;47.732;7.346;2023-04-04T07:51:10;98626.09;;;1.64;62.90
71996;BME280;59862;47.732;7.346;2023-04-04T07:53:39;98626.42;;;1.83;62.43
71996;BME280;59862;47.732;7.346;2023-04-04T07:56:07;98631.08;;;2.03;61.64
71996;BME280;59862;47.732;7.346;2023-04-04T07:58:35;98629.89;;;2.07;61.46
71996;BME280;59862;47.732;7.346;2023-04-04T08:01:02;98627.31;;;2.29;61.60
71996;BME280;59862;47.732;7.346;2023-04-04T08:03:30;98624.34;;;2.56;60.69
71996;BME280;59862;47.732;7.346;2023-04-04T08:05:57;98617.75;;;2.89;60.17
71996;BME280;59862;47.732;7.346;2023-04-04T08:08:25;98616.66;;;3.25;58.67
71996;BME280;59862;47.732;7.346;2023-04-04T08:10:52;98617.67;;;3.50;57.89
71996;BME280;59862;47.732;7.346;2023-04-04T08:13:20;98614.41;;;3.52;56.54
71996;BME280;59862;47.732;7.346;2023-04-04T08:15:47;98615.09;;;4.02;55.91
71996;BME280;59862;47.732;7.346;2023-04-04T08:18:14;98621.34;;;4.84;52.27
71996;BME280;59862;47.732;7.346;2023-04-04T08:20:42;98611.95;;;5.10;50.93
71996;BME280;59862;47.732;7.346;2023-04-04T08:23:10;98619.61;;;6.02;47.40
71996;BME280;59862;47.732;7.346;2023-04-04T08:25:38;98622.91;;;6.71;46.80
71996;BME280;59862;47.732;7.346;2023-04-04T08:28:05;98618.03;;;7.30;44.96
71996;BME280;59862;47.732;7.346;2023-04-04T08:30:33;98619.00;;;8.19;43.38
71996;BME280;59862;47.732;7.346;2023-04-04T08:33:00;98619.00;;;8.19;43.38
71996;BME280;59862;47.732;7.346;2023-04-04T08:35:28;98623.65;;;8.95;41.21
71996;BME280;59862;47.732;7.346;2023-04-04T08:37:56;98621.59;;;7.93;41.79
71996;BME280;59862;47.732;7.346;2023-04-04T08:40:23;98626.92;;;8.07;42.08
71996;BME280;59862;47.732;7.346;2023-04-04T08:42:50;98627.70;;;8.21;42.41
71996;BME280;59862;47.732;7.346;2023-04-04T08:45:21;98627.50;;;7.97;42.44
71996;BME280;59862;47.732;7.346;2023-04-04T08:47:51;98631.44;;;7.93;40.70
71996;BME280;59862;47.732;7.346;2023-04-04T08:50:20;98624.92;;;7.91;41.94
71996;BME280;59862;47.732;7.346;2023-04-04T08:52:48;98625.19;;;7.03;43.67
71996;BME280;59862;47.732;7.346;2023-04-04T08:55:16;98625.19;;;7.03;43.67
71996;BME280;59862;47.732;7.346;2023-04-04T08:57:45;98619.69;;;7.27;44.09
71996;BME280;59862;47.732;7.346;2023-04-04T09:00:13;98623.05;;;6.93;44.49
71996;BME280;59862;47.732;7.346;2023-04-04T09:02:54;98621.41;;;6.82;44.94
71996;BME280;59862;47.732;7.346;2023-04-04T09:05:25;98618.05;;;6.70;44.30
71996;BME280;59862;47.732;7.346;2023-04-04T09:07:54;98621.47;;;6.15;45.70
71996;BME280;59862;47.732;7.346;2023-04-04T09:10:22;98624.83;;;6.46;45.11
71996;BME280;59862;47.732;7.346;2023-04-04T09:12:50;98623.60;;;6.63;43.99
71996;BME280;59862;47.732;7.346;2023-04-04T09:15:19;98624.72;;;6.19;45.49
71996;BME280;59862;47.732;7.346;2023-04-04T09:17:46;98624.08;;;6.21;45.78
71996;BME280;59862;47.732;7.346;2023-04-04T09:20:33;98620.28;;;6.33;44.65
71996;BME280;59862;47.732;7.346;2023-04-04T09:23:07;98619.64;;;6.54;45.26
71996;BME280;59862;47.732;7.346;2023-04-04T09:25:35;98620.72;;;6.19;43.24
71996;BME280;59862;47.732;7.346;2023-04-04T09:28:06;98615.80;;;6.04;44.21
71996;BME280;59862;47.732;7.346;2023-04-04T09:30:33;98613.98;;;6.05;45.16
71996;BME280;59862;47.732;7.346;2023-04-04T09:33:04;98610.49;;;6.24;45.01
71996;BME280;59862;47.732;7.346;2023-04-04T09:35:35;98612.79;;;6.23;44.71
71996;BME280;59862;47.732;7.346;2023-04-04T09:38:05;98617.70;;;6.27;44.72
71996;BME280;59862;47.732;7.346;2023-04-04T09:40:38;98623.00;;;7.02;44.26
71996;BME280;59862;47.732;7.346;2023-04-04T09:43:07;98624.05;;;7.05;42.09
71996;BME280;59862;47.732;7.346;2023-04-04T09:45:38;98620.41;;;7.20;41.78
71996;BME280;59862;47.732;7.346;2023-04-04T09:48:06;98611.02;;;7.56;41.84
71996;BME280;59862;47.732;7.346;2023-04-04T09:50:35;98625.39;;;8.35;40.92
71996;BME280;59862;47.732;7.346;2023-04-04T09:53:03;98609.75;;;9.26;38.94
71996;BME280;59862;47.732;7.346;2023-04-04T09:55:33;98623.38;;;9.94;36.36
71996;BME280;59862;47.732;7.346;2023-04-04T09:58:16;98626.34;;;8.99;37.88
71996;BME280;59862;47.732;7.346;2023-04-04T10:00:47;98626.40;;;9.83;36.92
71996;BME280;59862;47.732;7.346;2023-04-04T10:03:16;98630.38;;;9.79;37.09
71996;BME280;59862;47.732;7.346;2023-04-04T10:05:53;98625.47;;;9.58;36.95
71996;BME280;59862;47.732;7.346;2023-04-04T10:08:20;98626.48;;;9.24;37.21
71996;BME280;59862;47.732;7.346;2023-04-04T10:10:50;98618.38;;;9.91;36.14
71996;BME280;59862;47.732;7.346;2023-04-04T10:13:29;98625.56;;;9.41;37.71
71996;BME280;59862;47.732;7.346;2023-04-04T10:15:59;98623.99;;;9.26;38.34
71996;BME280;59862;47.732;7.346;2023-04-04T10:18:29;98631.63;;;8.87;38.75
71996;BME280;59862;47.732;7.346;2023-04-04T10:20:59;98618.69;;;9.88;38.13
71996;BME280;59862;47.732;7.346;2023-04-04T10:23:28;98618.73;;;10.08;38.51
71996;BME280;59862;47.732;7.346;2023-04-04T10:25:57;98621.39;;;11.21;37.37
71996;BME280;59862;47.732;7.346;2023-04-04T10:28:26;98623.28;;;11.55;34.23
71996;BME280;59862;47.732;7.346;2023-04-04T10:36:52;98629.73;;;11.89;33.81
71996;BME280;59862;47.732;7.346;2023-04-04T10:39:39;98628.73;;;9.90;34.83
71996;BME280;59862;47.732;7.346;2023-04-04T10:42:06;98625.33;;;10.70;34.21
71996;BME280;59862;47.732;7.346;2023-04-04T10:44:38;98627.98;;;11.57;33.83
71996;BME280;59862;47.732;7.346;2023-04-04T10:47:16;98616.63;;;11.43;33.83
71996;BME280;59862;47.732;7.346;2023-04-04T10:49:44;98628.84;;;10.79;34.17
71996;BME280;59862;47.732;7.346;2023-04-04T10:52:20;98618.46;;;10.76;34.22
71996;BME280;59862;47.732;7.346;2023-04-04T10:54:56;98620.66;;;10.56;34.54
71996;BME280;59862;47.732;7.346;2023-04-04T10:57:25;98615.05;;;11.06;33.36
71996;BME280;59862;47.732;7.346;2023-04-04T11:00:07;98617.05;;;12.01;32.89
71996;BME280;59862;47.732;7.346;2023-04-04T11:05:31;98610.76;;;10.60;34.07
71996;BME280;59862;47.732;7.346;2023-04-04T11:08:05;98609.39;;;10.85;35.04
71996;BME280;59862;47.732;7.346;2023-04-04T11:10:37;98600.46;;;11.51;34.40
71996;BME280;59862;47.732;7.346;2023-04-04T11:13:16;98599.45;;;12.96;31.64
71996;BME280;59862;47.732;7.346;2023-04-04T11:21:05;98593.02;;;12.64;32.19
71996;BME280;59862;47.732;7.346;2023-04-04T11:29:04;98586.22;;;12.31;31.40
71996;BME280;59862;47.732;7.346;2023-04-04T11:31:38;98577.13;;;11.86;33.01
71996;BME280;59862;47.732;7.346;2023-04-04T11:34:11;98588.95;;;12.68;31.90
71996;BME280;59862;47.732;7.346;2023-04-04T11:39:25;98579.88;;;12.65;31.44
71996;BME280;59862;47.732;7.346;2023-04-04T11:42:13;98583.34;;;12.55;32.43
71996;BME280;59862;47.732;7.346;2023-04-04T11:47:22;98574.32;;;13.73;29.97
71996;BME280;59862;47.732;7.346;2023-04-04T11:49:52;98583.81;;;12.77;30.54
71996;BME280;59862;47.732;7.346;2023-04-04T11:52:20;98579.34;;;13.36;30.92
71996;BME280;59862;47.732;7.346;2023-04-04T11:54:49;98580.98;;;14.23;29.36
71996;BME280;59862;47.732;7.346;2023-04-04T11:57:19;98566.67;;;14.12;29.46
71996;BME280;59862;47.732;7.346;2023-04-04T11:59:49;98575.30;;;14.43;30.48
71996;BME280;59862;47.732;7.346;2023-04-04T12:02:24;98561.48;;;15.25;29.45
71996;BME280;59862;47.732;7.346;2023-04-04T12:04:57;98571.94;;;14.20;29.37
71996;BME280;59862;47.732;7.346;2023-04-04T12:07:25;98562.03;;;14.69;28.99
71996;BME280;59862;47.732;7.346;2023-04-04T12:09:54;98582.05;;;14.75;29.19
71996;BME280;59862;47.732;7.346;2023-04-04T12:12:22;98570.02;;;15.80;27.42
71996;BME280;59862;47.732;7.346;2023-04-04T12:14:53;98570.25;;;15.85;27.37
71996;BME280;59862;47.732;7.346;2023-04-04T12:17:21;98570.34;;;14.95;27.75
71996;BME280;59862;47.732;7.346;2023-04-04T12:19:48;98575.68;;;16.28;26.42
71996;BME280;59862;47.732;7.346;2023-04-04T12:22:15;98564.96;;;17.71;25.74
71996;BME280;59862;47.732;7.346;2023-04-04T12:24:43;98568.76;;;17.02;25.86
71996;BME280;59862;47.732;7.346;2023-04-04T12:27:10;98572.93;;;15.10;27.70
71996;BME280;59862;47.732;7.346;2023-04-04T12:29:38;98565.33;;;16.71;26.56
71996;BME280;59862;47.732;7.346;2023-04-04T12:32:07;98560.05;;;16.30;26.65
71996;BME280;59862;47.732;7.346;2023-04-04T12:34:41;98566.98;;;16.85;27.13
71996;BME280;59862;47.732;7.346;2023-04-04T12:37:08;98559.16;;;17.83;25.59
71996;BME280;59862;47.732;7.346;2023-04-04T12:39:46;98559.38;;;18.57;24.65
71996;BME280;59862;47.732;7.346;2023-04-04T12:42:10;98558.77;;;19.74;22.96
71996;BME280;59862;47.732;7.346;2023-04-04T12:44:39;98553.98;;;19.33;23.06
71996;BME280;59862;47.732;7.346;2023-04-04T12:47:08;98563.27;;;18.67;23.00
71996;BME280;59862;47.732;7.346;2023-04-04T12:49:41;98556.33;;;18.96;23.73
71996;BME280;59862;47.732;7.346;2023-04-04T12:52:27;98557.26;;;17.61;24.37
71996;BME280;59862;47.732;7.346;2023-04-04T12:54:58;98565.48;;;17.15;25.19
71996;BME280;59862;47.732;7.346;2023-04-04T12:57:26;98552.36;;;18.05;24.15
71996;BME280;59862;47.732;7.346;2023-04-04T12:59:55;98565.38;;;18.65;23.80
71996;BME280;59862;47.732;7.346;2023-04-04T13:02:23;98551.54;;;18.58;24.01
71996;BME280;59862;47.732;7.346;2023-04-04T13:04:53;98556.42;;;20.34;22.52
71996;BME280;59862;47.732;7.346;2023-04-04T13:07:28;98552.86;;;18.98;23.38
71996;BME280;59862;47.732;7.346;2023-04-04T13:09:54;98552.28;;;19.57;22.14
71996;BME280;59862;47.732;7.346;2023-04-04T13:12:22;98551.73;;;19.85;22.77
71996;BME280;59862;47.732;7.346;2023-04-04T13:15:05;98553.48;;;20.18;21.78
71996;BME280;59862;47.732;7.346;2023-04-04T13:17:43;98544.70;;;20.25;22.29
71996;BME280;59862;47.732;7.346;2023-04-04T13:20:12;98554.50;;;22.20;20.56
71996;BME280;59862;47.732;7.346;2023-04-04T13:22:41;98538.55;;;19.91;21.01
71996;BME280;59862;47.732;7.346;2023-04-04T13:25:10;98535.84;;;19.27;22.38
71996;BME280;59862;47.732;7.346;2023-04-04T13:27:38;98541.94;;;20.04;22.04
71996;BME280;59862;47.732;7.346;2023-04-04T13:30:07;98534.19;;;20.28;22.15
71996;BME280;59862;47.732;7.346;2023-04-04T13:32:35;98538.08;;;20.42;21.11
71996;BME280;59862;47.732;7.346;2023-04-04T13:35:02;98531.20;;;20.94;21.12
71996;BME280;59862;47.732;7.346;2023-04-04T13:37:30;98521.03;;;21.25;20.21
71996;BME280;59862;47.732;7.346;2023-04-04T13:39:57;98527.66;;;20.29;21.39
71996;BME280;59862;47.732;7.346;2023-04-04T13:42:25;98516.72;;;20.09;21.57